Time;durP1;ratioP1;P1;durP2;ratioP2;P2;SDS_P1;SDS_P2;PMS_P1;PMS_P2;Temp;Humidity;BMP_temperature;BMP_pressure;BME280_temperature;BME280_humidity;BME280_pressure;Samples;Min_cycle;Max_cycle;Signal;HPM_P1;HPM_P2
2020/12/26 00:01:38;;;;;;;7.35;4.30;;;;;8.40;102322.00;;;;5048411;28;20195;-76
2020/12/26 00:04:05;;;;;;;6.97;4.53;;;;;8.50;102322.00;;;;5048907;28;20207;-76
2020/12/26 00:06:32;;;;;;;5.72;3.40;;;;;8.50;102319.00;;;;5049042;28;20215;-76
2020/12/26 00:08:58;;;;;;;4.82;3.40;;;;;8.50;102320.00;;;;5048912;28;20202;-76
2020/12/26 00:11:25;;;;;;;5.97;3.78;;;;;8.50;102316.00;;;;5048595;28;20204;-76
2020/12/26 00:13:53;;;;;;;4.70;3.60;;;;;8.50;102307.00;;;;5048053;28;20227;-76
2020/12/26 00:16:20;;;;;;;5.50;3.78;;;;;8.60;102314.00;;;;5048769;28;20203;-76
2020/12/26 00:18:46;;;;;;;5.65;3.90;;;;;8.60;102312.00;;;;5048661;28;20203;-76
2020/12/26 00:21:15;;;;;;;5.53;3.42;;;;;8.60;102314.00;;;;5048713;28;20203;-76
2020/12/26 00:23:42;;;;;;;5.20;3.60;;;;;8.60;102307.00;;;;5048388;28;20258;-76
2020/12/26 00:26:09;;;;;;;7.50;3.47;;;;;8.70;102311.00;;;;5049043;28;20211;-76
2020/12/26 00:28:36;;;;;;;5.22;3.75;;;;;8.70;102301.00;;;;5047610;28;20199;-76
2020/12/26 00:31:04;;;;;;;6.93;4.03;;;;;8.70;102305.00;;;;5048716;28;20685;-76
2020/12/26 00:33:31;;;;;;;4.80;3.85;;;;;8.70;102314.00;;;;5048116;28;20700;-76
2020/12/26 00:35:58;;;;;;;5.93;3.78;;;;;8.80;102323.00;;;;5048606;28;20208;-76
2020/12/26 00:38:26;;;;;;;4.57;2.92;;;;;8.80;102320.00;;;;5048003;28;20196;-76
2020/12/26 00:40:53;;;;;;;6.25;3.83;;;;;8.80;102311.00;;;;5048275;28;20203;-76
2020/12/26 00:43:19;;;;;;;6.43;3.47;;;;;8.80;102311.00;;;;5048117;28;20734;-76
2020/12/26 00:45:46;;;;;;;5.45;3.65;;;;;8.80;102314.00;;;;5048284;28;20199;-76
2020/12/26 00:48:14;;;;;;;5.55;3.88;;;;;8.80;102310.00;;;;5048320;28;20199;-76
2020/12/26 00:50:40;;;;;;;5.30;3.08;;;;;8.90;102304.00;;;;5047317;28;20389;-76
2020/12/26 00:53:07;;;;;;;6.30;3.30;;;;;8.90;102300.00;;;;5048488;28;20226;-76
2020/12/26 00:55:34;;;;;;;5.93;3.17;;;;;8.90;102311.00;;;;5047533;28;20195;-76
2020/12/26 00:58:00;;;;;;;6.63;3.67;;;;;8.90;102303.00;;;;5047873;28;20690;-76
2020/12/26 01:00:27;;;;;;;6.10;4.45;;;;;8.90;102306.00;;;;5068743;28;20222;-76
2020/12/26 01:02:54;;;;;;;5.57;3.72;;;;;9.00;102309.00;;;;5087191;28;21018;-76
2020/12/26 01:05:21;;;;;;;4.93;3.40;;;;;9.00;102315.00;;;;5088232;28;20210;-76
2020/12/26 01:07:48;;;;;;;5.85;3.38;;;;;9.00;102307.00;;;;5087922;28;20206;-76
2020/12/26 01:10:15;;;;;;;8.30;4.13;;;;;9.00;102310.00;;;;5087590;28;20256;-76
2020/12/26 01:12:42;;;;;;;6.45;3.40;;;;;9.10;102315.00;;;;5088331;28;20202;-76
2020/12/26 01:15:09;;;;;;;7.05;3.65;;;;;9.10;102317.00;;;;5084824;28;20642;-76
2020/12/26 01:17:35;;;;;;;4.80;3.17;;;;;9.10;102309.00;;;;5085253;28;20202;-76
2020/12/26 01:20:02;;;;;;;4.30;3.08;;;;;9.10;102306.00;;;;5088349;28;20194;-76
2020/12/26 01:22:30;;;;;;;4.65;3.05;;;;;9.10;102311.00;;;;5088756;28;20202;-77
2020/12/26 01:24:57;;;;;;;3.58;2.97;;;;;9.10;102312.00;;;;5086972;28;20554;-76
2020/12/26 01:27:23;;;;;;;3.90;2.90;;;;;9.10;102304.00;;;;5088929;28;20194;-76
2020/12/26 01:29:50;;;;;;;4.18;2.50;;;;;9.10;102304.00;;;;5087306;28;20194;-76
2020/12/26 01:32:17;;;;;;;4.55;2.65;;;;;9.10;102309.00;;;;5088173;28;20198;-77
2020/12/26 01:34:43;;;;;;;7.00;2.83;;;;;9.10;102302.00;;;;5087891;28;20290;-76
2020/12/26 01:37:10;;;;;;;3.95;2.50;;;;;9.10;102294.00;;;;5087744;28;20224;-77
2020/12/26 01:39:38;;;;;;;5.85;2.80;;;;;9.10;102288.00;;;;5088151;28;20203;-77
2020/12/26 01:42:04;;;;;;;4.00;1.98;;;;;9.10;102287.00;;;;5087815;28;20582;-76
2020/12/26 01:44:31;;;;;;;2.75;1.75;;;;;9.20;102286.00;;;;5087520;28;20202;-76
2020/12/26 01:46:58;;;;;;;5.78;2.92;;;;;9.20;102281.00;;;;5087611;28;20224;-76
2020/12/26 01:49:25;;;;;;;3.38;2.45;;;;;9.20;102275.00;;;;5087412;28;20203;-76
2020/12/26 01:51:52;;;;;;;5.90;2.13;;;;;9.20;102278.00;;;;5087005;28;20201;-76
2020/12/26 01:54:19;;;;;;;4.32;2.25;;;;;9.20;102279.00;;;;5083811;28;20253;-76
2020/12/26 01:56:48;;;;;;;4.15;2.70;;;;;9.20;102283.00;;;;5087213;28;20857;-76
2020/12/26 01:59:15;;;;;;;5.13;2.25;;;;;9.20;102281.00;;;;5087172;28;20198;-76
2020/12/26 02:01:43;;;;;;;5.45;2.60;;;;;9.20;102277.00;;;;5087225;28;20213;-76
2020/12/26 02:04:11;;;;;;;3.13;2.35;;;;;9.20;102287.00;;;;5087639;28;20197;-76
2020/12/26 02:06:42;;;;;;;4.03;2.47;;;;;9.20;102288.00;;;;5087148;28;20218;-77
2020/12/26 02:09:10;;;;;;;3.10;2.10;;;;;9.30;102286.00;;;;5091800;28;20201;-77
2020/12/26 02:11:37;;;;;;;3.25;2.25;;;;;9.30;102286.00;;;;5090926;28;20198;-76
2020/12/26 02:14:05;;;;;;;3.67;2.08;;;;;9.20;102286.00;;;;5091499;28;20221;-76
2020/12/26 02:16:43;;;;;;;3.45;2.05;;;;;9.20;102297.00;;;;5091258;28;20202;-77
2020/12/26 02:19:10;;;;;;;2.58;1.70;;;;;9.20;102292.00;;;;5091187;28;20221;-76
2020/12/26 02:21:37;;;;;;;2.55;2.35;;;;;9.20;102296.00;;;;5091163;28;21015;-77
2020/12/26 02:24:04;;;;;;;2.97;1.95;;;;;9.20;102296.00;;;;5081317;28;20289;-77
2020/12/26 02:26:31;;;;;;;5.97;2.25;;;;;9.20;102283.00;;;;5088596;28;20198;-77
2020/12/26 02:28:58;;;;;;;4.75;2.45;;;;;9.20;102282.00;;;;5073552;28;20191;-76
2020/12/26 02:31:25;;;;;;;3.85;2.13;;;;;9.20;102277.00;;;;5086748;28;20205;-76
2020/12/26 02:33:52;;;;;;;3.13;2.20;;;;;9.20;102275.00;;;;5090722;28;20218;-76
2020/12/26 02:36:19;;;;;;;4.97;2.13;;;;;9.20;102259.00;;;;5090847;28;20237;-77
2020/12/26 02:38:46;;;;;;;2.50;1.80;;;;;9.20;102260.00;;;;5091009;28;20202;-76
2020/12/26 02:41:13;;;;;;;3.60;1.98;;;;;9.20;102256.00;;;;5090299;28;20202;-77
2020/12/26 02:43:40;;;;;;;3.92;2.17;;;;;9.20;102248.00;;;;5088589;28;20256;-77
2020/12/26 02:46:07;;;;;;;2.42;1.70;;;;;9.20;102240.00;;;;5089309;28;20202;-77
2020/12/26 02:48:34;;;;;;;2.05;1.75;;;;;9.20;102234.00;;;;5089386;28;20532;-77
2020/12/26 02:51:01;;;;;;;3.15;2.08;;;;;9.10;102229.00;;;;5088637;28;20186;-76
2020/12/26 02:53:27;;;;;;;5.97;2.30;;;;;9.10;102219.00;;;;5086901;28;20233;-76
2020/12/26 02:55:54;;;;;;;3.42;1.83;;;;;9.10;102226.00;;;;5080176;28;20206;-77
2020/12/26 02:58:22;;;;;;;2.88;1.92;;;;;9.10;102218.00;;;;5089932;28;20206;-77
2020/12/26 03:00:49;;;;;;;4.38;2.15;;;;;9.10;102203.00;;;;5090551;28;20256;-77
2020/12/26 03:03:16;;;;;;;2.97;2.05;;;;;9.10;102201.00;;;;5090455;28;20203;-76
2020/12/26 03:05:43;;;;;;;2.80;1.98;;;;;9.10;102198.00;;;;5089150;28;20198;-77
2020/12/26 03:08:09;;;;;;;3.10;1.98;;;;;9.00;102198.00;;;;5090857;28;20210;-76
2020/12/26 03:10:36;;;;;;;2.92;2.05;;;;;9.00;102183.00;;;;5090140;28;20482;-76
2020/12/26 03:13:03;;;;;;;2.28;1.90;;;;;9.00;102181.00;;;;5089949;28;20198;-76
2020/12/26 03:15:31;;;;;;;4.53;2.30;;;;;8.90;102170.00;;;;5090436;28;20201;-77
2020/12/26 03:17:58;;;;;;;2.40;1.73;;;;;8.90;102170.00;;;;5090033;28;20194;-76
2020/12/26 03:20:24;;;;;;;2.45;1.55;;;;;8.90;102161.00;;;;5089345;28;20205;-77
2020/12/26 03:22:51;;;;;;;2.20;1.58;;;;;8.80;102150.00;;;;5090130;28;20844;-76
2020/12/26 03:25:19;;;;;;;2.40;1.67;;;;;8.80;102135.00;;;;5090383;28;20228;-76
2020/12/26 03:27:46;;;;;;;2.50;1.70;;;;;8.80;102133.00;;;;5089325;28;20226;-77
2020/12/26 03:30:13;;;;;;;3.70;1.80;;;;;8.80;102137.00;;;;5089869;28;20233;-76
2020/12/26 03:32:41;;;;;;;2.42;1.88;;;;;8.70;102146.00;;;;5089878;28;20198;-76
2020/12/26 03:35:08;;;;;;;3.95;1.77;;;;;8.70;102147.00;;;;5089254;28;20218;-76
2020/12/26 03:37:35;;;;;;;3.70;1.92;;;;;8.70;102150.00;;;;5090301;28;20202;-76
2020/12/26 03:40:04;;;;;;;2.72;2.05;;;;;8.70;102152.00;;;;5089992;28;20222;-76
2020/12/26 03:42:31;;;;;;;3.53;2.35;;;;;8.70;102144.00;;;;5090036;28;20297;-76
2020/12/26 03:44:57;;;;;;;2.92;2.05;;;;;8.70;102152.00;;;;5089993;28;20210;-76
2020/12/26 03:47:24;;;;;;;2.15;1.55;;;;;8.70;102147.00;;;;5089486;28;20548;-76
2020/12/26 03:49:52;;;;;;;2.80;1.73;;;;;8.60;102162.00;;;;5089257;28;20191;-77
2020/12/26 03:52:18;;;;;;;3.50;1.83;;;;;8.60;102158.00;;;;5089857;28;20202;-77
2020/12/26 03:54:45;;;;;;;2.03;1.40;;;;;8.60;102150.00;;;;5088573;28;20226;-77
2020/12/26 03:57:13;;;;;;;1.92;1.50;;;;;8.60;102146.00;;;;5089260;28;20206;-76
2020/12/26 03:59:40;;;;;;;2.28;1.60;;;;;8.60;102148.00;;;;5089172;28;20700;-76
2020/12/26 04:02:07;;;;;;;2.70;1.52;;;;;8.60;102134.00;;;;5089800;28;20194;-77
2020/12/26 04:04:34;;;;;;;4.35;1.90;;;;;8.60;102136.00;;;;5088675;28;20190;-76
2020/12/26 04:07:01;;;;;;;2.22;1.33;;;;;8.60;102135.00;;;;5088972;28;20214;-76
2020/12/26 04:09:28;;;;;;;2.85;1.60;;;;;8.60;102133.00;;;;5089606;28;20194;-76
2020/12/26 04:11:55;;;;;;;1.77;1.50;;;;;8.60;102138.00;;;;5088958;28;20190;-76
2020/12/26 04:14:22;;;;;;;2.63;1.10;;;;;8.60;102138.00;;;;5088807;28;20218;-76
2020/12/26 04:16:54;;;;;;;1.83;1.13;;;;;8.60;102141.00;;;;5088729;28;20198;-76
2020/12/26 04:19:21;;;;;;;2.28;1.23;;;;;8.60;102128.00;;;;5089387;28;20684;-76
2020/12/26 04:21:48;;;;;;;2.83;0.90;;;;;8.50;102130.00;;;;5088472;28;20213;-76
2020/12/26 04:24:15;;;;;;;2.10;0.85;;;;;8.50;102130.00;;;;5088892;28;20198;-76
2020/12/26 04:26:42;;;;;;;1.27;0.95;;;;;8.50;102137.00;;;;5088930;28;20198;-77
2020/12/26 04:29:09;;;;;;;1.98;0.95;;;;;8.60;102131.00;;;;5088530;28;20553;-77
2020/12/26 04:31:36;;;;;;;1.40;0.80;;;;;8.60;102116.00;;;;5088564;28;20202;-76
2020/12/26 04:34:02;;;;;;;1.17;0.93;;;;;8.60;102107.00;;;;5088262;28;20869;-76
2020/12/26 04:36:29;;;;;;;1.70;0.90;;;;;8.60;102112.00;;;;5088711;28;20190;-77
2020/12/26 04:38:56;;;;;;;1.27;0.60;;;;;8.60;102104.00;;;;5088208;28;20194;-76
2020/12/26 04:41:24;;;;;;;1.00;0.70;;;;;8.70;102097.00;;;;5088967;28;21027;-77
2020/12/26 04:43:53;;;;;;;1.60;0.70;;;;;8.70;102090.00;;;;5087856;28;20198;-76
2020/12/26 04:46:20;;;;;;;2.47;0.70;;;;;8.70;102085.00;;;;5088338;28;20240;-76
2020/12/26 04:49:04;;;;;;;1.38;0.73;;;;;8.60;102085.00;;;;5087646;28;20243;-76
2020/12/26 04:51:34;;;;;;;2.17;0.60;;;;;8.60;102086.00;;;;5087878;28;20213;-76
2020/12/26 04:54:11;;;;;;;0.80;0.52;;;;;8.60;102092.00;;;;5087459;28;20228;-76
2020/12/26 04:56:45;;;;;;;0.93;0.60;;;;;8.60;102079.00;;;;5087751;28;20206;-76
2020/12/26 04:59:13;;;;;;;3.13;0.75;;;;;8.60;102085.00;;;;5088322;28;20205;-76
2020/12/26 05:01:41;;;;;;;1.58;0.73;;;;;8.60;102079.00;;;;5087797;28;20205;-77
2020/12/26 05:04:09;;;;;;;1.30;0.70;;;;;8.60;102073.00;;;;5088049;28;20217;-76
2020/12/26 05:06:45;;;;;;;1.17;0.75;;;;;8.60;102077.00;;;;5088045;28;20237;-76
2020/12/26 05:09:13;;;;;;;3.95;1.00;;;;;8.70;102077.00;;;;5087891;28;20197;-76
2020/12/26 05:11:40;;;;;;;1.25;0.65;;;;;8.70;102077.00;;;;5086940;28;20198;-77
2020/12/26 05:14:15;;;;;;;2.08;0.63;;;;;8.70;102070.00;;;;5088262;28;20230;-76
2020/12/26 05:16:42;;;;;;;3.05;0.60;;;;;8.70;102056.00;;;;5087600;28;20198;-76
2020/12/26 05:19:09;;;;;;;0.55;0.47;;;;;8.70;102073.00;;;;5087798;28;20205;-77
2020/12/26 05:21:36;;;;;;;2.13;0.85;;;;;8.80;102067.00;;;;5081692;28;20210;-77
2020/12/26 05:24:05;;;;;;;1.50;0.70;;;;;8.80;102067.00;;;;5082113;28;20193;-76
2020/12/26 05:26:38;;;;;;;0.88;0.50;;;;;8.80;102070.00;;;;5087514;28;20190;-76
2020/12/26 05:29:06;;;;;;;2.10;0.90;;;;;8.80;102070.00;;;;5087153;28;20360;-76
2020/12/26 05:31:45;;;;;;;1.70;0.60;;;;;8.80;102060.00;;;;5087876;28;20664;-77
2020/12/26 05:34:12;;;;;;;1.00;0.60;;;;;8.90;102058.00;;;;5087520;28;20225;-77
2020/12/26 05:36:40;;;;;;;0.77;0.50;;;;;9.00;102052.00;;;;5087237;28;20572;-77
2020/12/26 05:39:07;;;;;;;1.58;0.60;;;;;9.00;102058.00;;;;5087561;28;20662;-77
2020/12/26 05:41:39;;;;;;;1.25;0.43;;;;;9.00;102048.00;;;;5087670;28;20634;-76
2020/12/26 05:44:06;;;;;;;2.45;0.60;;;;;9.00;102062.00;;;;5087883;28;20255;-76
2020/12/26 05:46:33;;;;;;;1.67;0.55;;;;;9.10;102057.00;;;;5087241;28;20222;-77
2020/12/26 05:49:21;;;;;;;0.98;0.40;;;;;9.00;102060.00;;;;5087233;28;20198;-77
2020/12/26 05:51:50;;;;;;;0.90;0.60;;;;;9.10;102057.00;;;;5087191;28;20198;-76
2020/12/26 05:54:19;;;;;;;1.10;0.60;;;;;9.10;102068.00;;;;5085706;28;20226;-76
2020/12/26 05:56:46;;;;;;;3.13;1.05;;;;;9.20;102068.00;;;;5087602;28;20259;-77
2020/12/26 05:59:26;;;;;;;1.08;0.77;;;;;9.10;102065.00;;;;5087031;28;20779;-76
2020/12/26 06:01:56;;;;;;;1.35;0.55;;;;;9.20;102060.00;;;;5086118;28;20472;-77
2020/12/26 06:04:23;;;;;;;1.13;0.43;;;;;9.20;102057.00;;;;5087706;28;20289;-76
2020/12/26 06:06:52;;;;;;;2.45;0.50;;;;;9.20;102051.00;;;;5086661;28;20271;-77
2020/12/26 06:09:20;;;;;;;1.33;0.70;;;;;9.30;102055.00;;;;5087604;28;20194;-76
2020/12/26 06:11:48;;;;;;;1.90;0.60;;;;;9.30;102038.00;;;;5086777;28;20255;-77
2020/12/26 06:14:19;;;;;;;1.10;0.40;;;;;9.30;102039.00;;;;5086731;28;20229;-76
2020/12/26 06:16:51;;;;;;;2.78;0.50;;;;;9.30;102047.00;;;;5087109;28;20194;-77
2020/12/26 06:19:19;;;;;;;1.38;0.52;;;;;9.30;102052.00;;;;5087745;28;20252;-76
2020/12/26 06:21:51;;;;;;;1.90;0.50;;;;;9.30;102039.00;;;;5086812;28;20198;-76
2020/12/26 06:24:19;;;;;;;1.05;0.60;;;;;9.30;102038.00;;;;5087191;28;20202;-76
2020/12/26 06:26:47;;;;;;;1.77;0.57;;;;;9.30;102039.00;;;;5087399;28;20198;-77
2020/12/26 06:29:21;;;;;;;2.13;0.55;;;;;9.30;102042.00;;;;5087653;28;20206;-76
2020/12/26 06:31:51;;;;;;;0.95;0.60;;;;;9.30;102045.00;;;;5086131;28;20243;-76
2020/12/26 06:34:19;;;;;;;2.03;0.88;;;;;9.30;102052.00;;;;5081149;28;20242;-76
2020/12/26 06:36:46;;;;;;;1.05;0.40;;;;;9.30;102054.00;;;;5084609;28;20191;-78
2020/12/26 06:39:34;;;;;;;1.40;0.68;;;;;9.30;102053.00;;;;5086083;28;20206;-78
2020/12/26 06:42:14;;;;;;;1.85;0.88;;;;;9.30;102045.00;;;;5080676;28;20967;-78
2020/12/26 06:44:42;;;;;;;1.00;0.47;;;;;9.40;102034.00;;;;5081577;28;20709;-78
2020/12/26 06:47:09;;;;;;;4.07;1.42;;;;;9.40;102047.00;;;;5086264;28;20202;-78
2020/12/26 06:49:37;;;;;;;1.30;0.80;;;;;9.40;102043.00;;;;5085237;28;20256;-78
2020/12/26 06:52:03;;;;;;;1.98;0.73;;;;;9.50;102049.00;;;;5083049;28;20194;-78
2020/12/26 06:54:38;;;;;;;3.90;1.15;;;;;9.40;102043.00;;;;5087486;28;20225;-78
2020/12/26 06:57:05;;;;;;;1.15;0.73;;;;;9.50;102045.00;;;;5088711;28;20233;-78
2020/12/26 06:59:33;;;;;;;2.83;1.00;;;;;9.50;102048.00;;;;5088737;28;20202;-78
2020/12/26 07:02:09;;;;;;;2.33;1.00;;;;;9.40;102036.00;;;;5088349;28;20610;-78
2020/12/26 07:04:40;;;;;;;2.70;1.15;;;;;9.50;102050.00;;;;5089708;28;20571;-78
2020/12/26 07:07:09;;;;;;;1.40;1.10;;;;;9.50;102044.00;;;;5090161;28;20257;-78
2020/12/26 07:09:49;;;;;;;4.13;1.38;;;;;9.40;102041.00;;;;5089823;28;20668;-78
2020/12/26 07:12:16;;;;;;;2.67;1.17;;;;;9.50;102032.00;;;;5090571;28;20198;-78
2020/12/26 07:14:44;;;;;;;2.70;1.08;;;;;9.50;102032.00;;;;5088637;28;20679;-79
2020/12/26 07:17:27;;;;;;;2.30;1.20;;;;;9.40;102030.00;;;;5088402;28;20318;-78
2020/12/26 07:19:58;;;;;;;2.22;1.15;;;;;9.50;102029.00;;;;5088551;28;20255;-78
2020/12/26 07:22:26;;;;;;;2.22;1.30;;;;;9.50;102038.00;;;;5089206;28;20198;-78
2020/12/26 07:24:54;;;;;;;3.75;2.05;;;;;9.50;102027.00;;;;5089722;28;20325;-79
2020/12/26 07:27:24;;;;;;;3.80;1.63;;;;;9.50;102030.00;;;;5090220;28;20202;-79
2020/12/26 07:29:59;;;;;;;3.25;1.25;;;;;9.50;102034.00;;;;5088550;28;20198;-79
2020/12/26 07:32:52;;;;;;;4.03;1.70;;;;;9.50;102038.00;;;;5088671;28;20282;-78
2020/12/26 07:35:40;;;;;;;1.52;1.27;;;;;9.50;102044.00;;;;5085649;28;20590;-77
2020/12/26 07:38:09;;;;;;;2.45;1.60;;;;;9.60;102039.00;;;;5088558;28;20213;-78
2020/12/26 07:40:38;;;;;;;4.10;1.50;;;;;9.60;102034.00;;;;5088310;28;20199;-79
2020/12/26 07:43:08;;;;;;;1.65;1.35;;;;;9.70;102033.00;;;;5088240;28;20206;-79
2020/12/26 07:45:36;;;;;;;2.17;1.38;;;;;9.70;102032.00;;;;5088596;28;20738;-79
2020/12/26 07:48:04;;;;;;;5.70;1.80;;;;;9.70;102035.00;;;;5090319;28;20577;-79
2020/12/26 07:50:32;;;;;;;2.50;1.67;;;;;9.70;102024.00;;;;5088989;28;20202;-79
2020/12/26 07:53:01;;;;;;;4.20;1.95;;;;;9.70;102024.00;;;;5089609;28;20679;-79
2020/12/26 07:55:29;;;;;;;3.50;2.15;;;;;9.70;102014.00;;;;5087966;28;20759;-79
2020/12/26 07:58:03;;;;;;;3.22;2.20;;;;;9.60;102010.00;;;;5088588;28;20706;-80
2020/12/26 08:00:32;;;;;;;3.70;2.17;;;;;9.60;102008.00;;;;5089029;28;20233;-79
2020/12/26 08:03:00;;;;;;;3.47;1.85;;;;;9.60;102007.00;;;;5088353;28;20190;-77
2020/12/26 08:05:28;;;;;;;3.90;2.03;;;;;9.50;102007.00;;;;5088074;28;20244;-79
2020/12/26 08:07:55;;;;;;;2.08;1.65;;;;;9.50;102015.00;;;;5088227;28;20229;-78
2020/12/26 08:10:24;;;;;;;3.45;2.13;;;;;9.50;102002.00;;;;5088825;28;20197;-78
2020/12/26 08:12:53;;;;;;;4.35;2.33;;;;;9.60;101995.00;;;;5087797;28;20195;-78
2020/12/26 08:15:24;;;;;;;3.83;2.05;;;;;9.60;101985.00;;;;5088482;28;20229;-78
2020/12/26 08:17:56;;;;;;;3.78;2.65;;;;;9.50;101989.00;;;;5087796;28;20687;-78
2020/12/26 08:20:24;;;;;;;6.35;2.70;;;;;9.60;101981.00;;;;5087373;28;20308;-79
2020/12/26 08:22:51;;;;;;;4.63;2.15;;;;;9.60;101987.00;;;;5088142;28;20198;-79
2020/12/26 08:25:20;;;;;;;3.90;2.65;;;;;9.60;101982.00;;;;5089297;28;20209;-79
2020/12/26 08:27:48;;;;;;;2.88;2.25;;;;;9.60;101992.00;;;;5068668;28;20209;-79
2020/12/26 08:30:17;;;;;;;5.22;2.50;;;;;9.60;101989.00;;;;5075915;28;20199;-78
2020/12/26 08:32:53;;;;;;;3.83;2.42;;;;;9.60;101982.00;;;;5086241;28;20198;-78
2020/12/26 08:35:23;;;;;;;5.30;2.40;;;;;9.70;101983.00;;;;5086337;28;20271;-78
2020/12/26 08:37:58;;;;;;;3.60;2.05;;;;;9.60;101970.00;;;;5086551;28;20190;-79
2020/12/26 08:40:26;;;;;;;3.80;2.45;;;;;9.70;101986.00;;;;5087490;28;20209;-79
2020/12/26 08:42:54;;;;;;;4.28;2.65;;;;;9.70;101975.00;;;;5086946;28;20203;-79
2020/12/26 08:45:29;;;;;;;2.92;2.25;;;;;9.70;101972.00;;;;5088455;28;20704;-79
2020/12/26 08:47:59;;;;;;;4.55;2.67;;;;;9.70;101977.00;;;;5088292;28;20208;-79
2020/12/26 08:50:27;;;;;;;4.85;2.47;;;;;9.70;101976.00;;;;5087498;28;20230;-78
2020/12/26 08:53:03;;;;;;;3.15;2.15;;;;;9.70;101971.00;;;;5086888;28;20579;-79
2020/12/26 08:55:30;;;;;;;5.07;2.40;;;;;9.80;101975.00;;;;5085445;28;20213;-79
2020/12/26 08:57:58;;;;;;;5.32;2.80;;;;;9.80;101967.00;;;;5085571;28;20248;-79
2020/12/26 09:00:26;;;;;;;3.80;2.40;;;;;9.80;101970.00;;;;5086053;28;20707;-78
2020/12/26 09:02:55;;;;;;;4.50;2.63;;;;;9.80;101959.00;;;;5087298;28;20660;-79
2020/12/26 09:05:28;;;;;;;3.00;2.17;;;;;9.80;101969.00;;;;5087752;28;20198;-78
2020/12/26 09:08:02;;;;;;;3.90;2.45;;;;;9.80;101969.00;;;;5086290;28;20797;-77
2020/12/26 09:10:30;;;;;;;5.00;2.38;;;;;9.80;101970.00;;;;5086131;28;20193;-78
2020/12/26 09:13:05;;;;;;;4.00;2.25;;;;;9.80;101954.00;;;;5084705;28;20194;-77
2020/12/26 09:15:53;;;;;;;3.60;2.13;;;;;9.70;101954.00;;;;5086094;28;20231;-78
2020/12/26 09:18:21;;;;;;;3.33;2.08;;;;;9.80;101944.00;;;;5086930;28;20201;-79
2020/12/26 09:20:52;;;;;;;3.97;2.22;;;;;9.80;101943.00;;;;5086863;28;20202;-79
2020/12/26 09:23:20;;;;;;;4.43;2.17;;;;;9.80;101941.00;;;;5087845;28;20198;-79
2020/12/26 09:25:47;;;;;;;4.93;2.78;;;;;9.90;101929.00;;;;5086464;28;20901;-79
2020/12/26 09:28:14;;;;;;;4.03;2.28;;;;;9.90;101929.00;;;;5088441;28;20210;-79
2020/12/26 09:30:41;;;;;;;6.40;2.70;;;;;9.90;101928.00;;;;5087129;28;20198;-77
2020/12/26 09:33:08;;;;;;;6.28;3.15;;;;;9.90;101934.00;;;;5088362;28;20198;-78
2020/12/26 09:35:36;;;;;;;3.97;2.28;;;;;9.90;101923.00;;;;5083256;28;20241;-79
2020/12/26 09:38:03;;;;;;;5.28;2.83;;;;;10.00;101919.00;;;;5086787;28;20209;-80
2020/12/26 09:40:32;;;;;;;3.42;2.40;;;;;10.00;101934.00;;;;5087363;28;20201;-78
2020/12/26 09:43:00;;;;;;;7.68;2.60;;;;;10.00;101928.00;;;;5087731;28;20202;-79
2020/12/26 09:45:28;;;;;;;3.45;2.28;;;;;10.10;101926.00;;;;5087689;28;20206;-79
2020/12/26 09:47:58;;;;;;;3.03;2.30;;;;;10.10;101931.00;;;;5088201;28;20256;-79
2020/12/26 09:50:25;;;;;;;3.10;1.75;;;;;10.10;101933.00;;;;5087590;28;20995;-78
2020/12/26 09:52:52;;;;;;;4.00;1.92;;;;;10.20;101926.00;;;;5086704;28;20290;-78
2020/12/26 09:55:19;;;;;;;3.20;2.30;;;;;10.20;101919.00;;;;5086163;28;20275;-78
2020/12/26 09:57:46;;;;;;;3.17;2.05;;;;;10.20;101911.00;;;;5087773;28;20601;-79
2020/12/26 10:00:12;;;;;;;3.00;2.13;;;;;10.20;101908.00;;;;5087273;28;20237;-78
2020/12/26 10:02:40;;;;;;;6.15;2.33;;;;;10.20;101916.00;;;;5087110;28;20263;-79
2020/12/26 10:05:07;;;;;;;2.75;2.20;;;;;10.30;101913.00;;;;5088050;28;20205;-78
2020/12/26 10:07:34;;;;;;;3.20;1.80;;;;;10.30;101917.00;;;;5085253;28;20242;-80
2020/12/26 10:10:00;;;;;;;3.03;1.80;;;;;10.30;101920.00;;;;5086472;28;20202;-78
2020/12/26 10:12:28;;;;;;;2.00;1.60;;;;;10.30;101919.00;;;;5086758;28;20214;-78
2020/12/26 10:14:54;;;;;;;2.53;1.42;;;;;10.30;101911.00;;;;5087617;28;20238;-78
2020/12/26 10:17:21;;;;;;;4.55;2.00;;;;;10.40;101914.00;;;;5087154;28;20194;-78
2020/12/26 10:19:49;;;;;;;2.28;1.65;;;;;10.40;101907.00;;;;5087297;28;21105;-77
2020/12/26 10:22:15;;;;;;;3.35;2.20;;;;;10.40;101893.00;;;;5084490;28;20194;-78
2020/12/26 10:24:42;;;;;;;2.17;1.63;;;;;10.40;101908.00;;;;5086868;28;20206;-78
2020/12/26 10:27:09;;;;;;;3.67;1.67;;;;;10.50;101902.00;;;;5087163;28;20213;-78
2020/12/26 10:29:36;;;;;;;3.08;1.90;;;;;10.50;101902.00;;;;5090005;28;20190;-78
2020/12/26 10:32:04;;;;;;;4.85;1.88;;;;;10.50;101902.00;;;;5085340;28;20209;-78
2020/12/26 10:34:31;;;;;;;2.58;1.90;;;;;10.50;101887.00;;;;5090477;28;20320;-78
2020/12/26 10:36:59;;;;;;;2.03;1.38;;;;;10.50;101898.00;;;;5089877;28;20260;-78
2020/12/26 10:39:25;;;;;;;7.10;2.28;;;;;10.60;101905.00;;;;5089513;28;20206;-77
2020/12/26 10:41:52;;;;;;;4.28;1.95;;;;;10.60;101897.00;;;;5090482;28;20259;-78
2020/12/26 10:44:19;;;;;;;2.30;1.80;;;;;10.60;101888.00;;;;5091208;28;20232;-78
2020/12/26 10:46:46;;;;;;;3.33;2.00;;;;;10.60;101870.00;;;;5089228;28;20195;-78
2020/12/26 10:49:12;;;;;;;3.13;1.40;;;;;10.70;101863.00;;;;5090301;28;20202;-78
2020/12/26 10:51:39;;;;;;;2.42;1.65;;;;;10.70;101858.00;;;;5089446;28;20559;-78
2020/12/26 10:54:07;;;;;;;3.17;1.90;;;;;10.80;101859.00;;;;5089303;28;20209;-77
2020/12/26 10:56:33;;;;;;;3.00;1.48;;;;;10.80;101865.00;;;;5086081;28;20205;-78
2020/12/26 10:59:02;;;;;;;2.17;1.35;;;;;10.80;101853.00;;;;5074629;28;20186;-78
2020/12/26 11:01:31;;;;;;;2.10;1.45;;;;;10.90;101833.00;;;;5088822;28;20222;-78
2020/12/26 11:03:57;;;;;;;4.03;1.52;;;;;10.90;101847.00;;;;5089311;28;20206;-78
2020/12/26 11:06:24;;;;;;;1.75;1.23;;;;;10.80;101837.00;;;;5090830;28;20194;-78
2020/12/26 11:08:51;;;;;;;3.40;1.60;;;;;10.80;101837.00;;;;5089922;28;20236;-79
2020/12/26 11:11:18;;;;;;;5.20;1.95;;;;;10.80;101831.00;;;;5088512;28;20204;-78
2020/12/26 11:13:45;;;;;;;2.10;1.23;;;;;10.80;101828.00;;;;5090571;28;20185;-78
2020/12/26 11:16:13;;;;;;;2.28;1.33;;;;;10.80;101828.00;;;;5090527;28;20218;-79
2020/12/26 11:18:40;;;;;;;1.92;1.25;;;;;10.90;101823.00;;;;5086528;28;20198;-79
2020/12/26 11:21:07;;;;;;;2.42;1.38;;;;;10.90;101828.00;;;;5090060;28;20206;-79
2020/12/26 11:23:34;;;;;;;4.72;1.23;;;;;10.90;101816.00;;;;5090164;28;20224;-78
2020/12/26 11:26:01;;;;;;;3.17;1.90;;;;;10.90;101806.00;;;;5089080;28;20209;-79
2020/12/26 11:28:29;;;;;;;1.75;1.35;;;;;10.90;101793.00;;;;5090042;28;20598;-78
2020/12/26 11:30:56;;;;;;;2.28;1.33;;;;;10.90;101790.00;;;;5089577;28;20816;-79
2020/12/26 11:33:22;;;;;;;2.88;1.05;;;;;10.90;101793.00;;;;5089844;28;20198;-80
2020/12/26 11:35:49;;;;;;;3.95;1.30;;;;;11.00;101783.00;;;;5089275;28;20226;-78
2020/12/26 11:38:16;;;;;;;6.25;1.52;;;;;11.00;101787.00;;;;5090326;28;20221;-79
2020/12/26 11:40:43;;;;;;;2.22;1.20;;;;;11.00;101781.00;;;;5089747;28;20567;-79
2020/12/26 11:43:09;;;;;;;2.28;1.13;;;;;11.00;101774.00;;;;5090360;28;20202;-79
2020/12/26 11:45:37;;;;;;;1.63;1.30;;;;;11.00;101765.00;;;;5086852;28;20206;-79
2020/12/26 11:48:04;;;;;;;2.53;1.50;;;;;11.00;101754.00;;;;5070674;28;20191;-79
2020/12/26 11:50:31;;;;;;;2.67;1.38;;;;;11.00;101743.00;;;;5089946;28;20194;-79
2020/12/26 11:52:57;;;;;;;2.85;1.50;;;;;11.00;101736.00;;;;5089276;28;20565;-79
2020/12/26 11:55:24;;;;;;;2.47;1.50;;;;;11.00;101725.00;;;;5088888;28;20593;-79
2020/12/26 11:57:51;;;;;;;2.17;1.48;;;;;11.10;101725.00;;;;5089289;28;20247;-79
2020/12/26 12:00:18;;;;;;;2.30;1.30;;;;;11.10;101721.00;;;;5088791;28;20700;-79
2020/12/26 12:02:45;;;;;;;1.63;1.23;;;;;11.10;101718.00;;;;5089578;28;20199;-79
2020/12/26 12:05:12;;;;;;;3.00;1.25;;;;;11.10;101702.00;;;;5089469;28;20190;-79
2020/12/26 12:07:39;;;;;;;2.35;1.38;;;;;11.10;101698.00;;;;5087014;28;20221;-80
2020/12/26 12:10:05;;;;;;;2.22;1.30;;;;;11.20;101690.00;;;;5088741;28;20202;-79
2020/12/26 12:12:32;;;;;;;2.92;1.45;;;;;11.20;101695.00;;;;5087490;28;20272;-80
2020/12/26 12:14:59;;;;;;;5.15;1.67;;;;;11.20;101682.00;;;;5086914;28;20218;-81
2020/12/26 12:17:25;;;;;;;2.53;1.40;;;;;11.20;101674.00;;;;5087938;28;20207;-80
2020/12/26 12:19:53;;;;;;;4.57;1.90;;;;;11.30;101660.00;;;;5083841;28;20519;-80
2020/12/26 12:22:20;;;;;;;2.85;1.60;;;;;11.30;101667.00;;;;5087649;28;20194;-79